createdAt,value
2022-11-06T00:01:54.843Z,7.60
2022-11-06T00:05:17.318Z,7.20
2022-11-06T00:08:31.563Z,7.85
2022-11-06T00:11:34.587Z,7.18
2022-11-06T00:14:36.987Z,7.90
2022-11-06T00:17:41.862Z,7.50
2022-11-06T00:20:44.348Z,7.53
2022-11-06T00:23:48.526Z,7.88
2022-11-06T00:26:54.437Z,8.18
2022-11-06T00:29:58.922Z,7.57
2022-11-06T00:33:01.407Z,7.18
2022-11-06T00:36:05.717Z,7.30
2022-11-06T00:39:11.162Z,7.20
2022-11-06T00:42:13.958Z,7.88
2022-11-06T00:45:16.634Z,7.32
2022-11-06T00:48:19.106Z,7.40
2022-11-06T00:51:26.862Z,7.50
2022-11-06T00:54:29.371Z,7.68
2022-11-06T00:57:32.201Z,7.45
2022-11-06T01:00:34.729Z,7.22
2022-11-06T01:03:38.889Z,7.30
2022-11-06T01:06:44.203Z,7.40
2022-11-06T01:09:47.059Z,7.30
2022-11-06T01:12:49.443Z,7.35
2022-11-06T01:15:51.953Z,7.63
2022-11-06T01:18:56.300Z,6.70
2022-11-06T01:21:58.892Z,7.27
2022-11-06T01:25:01.430Z,7.07
2022-11-06T01:28:04.280Z,7.25
2022-11-06T01:31:09.890Z,6.85
2022-11-06T01:34:13.164Z,7.15
2022-11-06T01:37:15.674Z,6.97
2022-11-06T01:40:20.311Z,6.85
2022-11-06T01:43:42.971Z,6.57
2022-11-06T01:46:45.566Z,6.78
2022-11-06T01:49:49.759Z,6.78
2022-11-06T01:52:52.910Z,6.53
2022-11-06T01:55:59.965Z,6.80
2022-11-06T01:59:03.711Z,6.53
2022-11-06T02:02:06.569Z,7.20
2022-11-06T02:05:09.659Z,7.10
2022-11-06T02:08:15.126Z,7.00
2022-11-06T02:11:18.017Z,6.70
2022-11-06T02:14:43.447Z,7.22
2022-11-06T02:17:55.260Z,6.20
2022-11-06T02:21:34.686Z,6.53
2022-11-06T02:24:49.323Z,6.17
2022-11-06T02:28:03.274Z,6.45
2022-11-06T02:31:12.362Z,6.20
2022-11-06T02:34:18.728Z,6.68
2022-11-06T02:37:28.451Z,6.47
2022-11-06T02:40:36.919Z,6.23
2022-11-06T02:43:43.968Z,6.28
2022-11-06T02:46:59.176Z,6.15
2022-11-06T02:50:05.378Z,5.90
2022-11-06T02:53:09.923Z,6.30
2022-11-06T02:56:16.535Z,6.13
2022-11-06T02:59:23.908Z,5.90
2022-11-06T03:02:33.397Z,6.13
2022-11-06T03:05:47.362Z,5.90
2022-11-06T03:09:00.736Z,6.07
2022-11-06T03:12:28.524Z,5.87
2022-11-06T03:15:38.666Z,5.95
2022-11-06T03:18:58.881Z,6.18
2022-11-06T03:22:09.158Z,5.85
2022-11-06T03:25:21.725Z,5.88
2022-11-06T03:28:40.296Z,5.57
2022-11-06T03:31:55.509Z,5.50
2022-11-06T03:35:16.203Z,5.47
2022-11-06T03:38:42.728Z,6.32
2022-11-06T03:41:53.748Z,5.78
2022-11-06T03:45:10.897Z,5.47
2022-11-06T03:48:22.619Z,5.80
2022-11-06T03:51:42.356Z,5.55
2022-11-06T03:54:52.500Z,5.63
2022-11-06T03:58:24.435Z,5.80
2022-11-06T04:01:32.451Z,5.30
2022-11-06T04:04:41.805Z,5.45
2022-11-06T04:08:08.176Z,5.65
2022-11-06T04:11:32.559Z,5.22
2022-11-06T04:14:37.337Z,5.47
2022-11-06T04:17:41.925Z,5.13
2022-11-06T04:21:26.149Z,5.00
2022-11-06T04:25:01.427Z,5.07
2022-11-06T04:28:25.520Z,5.43
2022-11-06T04:31:34.479Z,5.10
2022-11-06T04:34:42.940Z,5.10
2022-11-06T04:37:57.399Z,5.72
2022-11-06T04:41:18.623Z,6.13
2022-11-06T04:44:32.414Z,4.82
2022-11-06T04:47:36.692Z,5.10
2022-11-06T04:50:50.282Z,4.80
2022-11-06T04:53:54.256Z,4.95
2022-11-06T04:57:00.619Z,5.13
2022-11-06T05:00:04.324Z,5.13
2022-11-06T05:03:07.416Z,5.13
2022-11-06T05:06:09.970Z,5.00
2022-11-06T05:09:12.634Z,4.60
2022-11-06T05:12:16.178Z,5.00
2022-11-06T05:15:18.702Z,4.85
2022-11-06T05:18:21.248Z,4.50
2022-11-06T05:21:42.334Z,4.80
2022-11-06T05:24:44.829Z,4.65
2022-11-06T05:27:47.263Z,4.80
2022-11-06T05:30:49.697Z,4.88
2022-11-06T05:33:52.172Z,4.85
2022-11-06T05:36:54.940Z,4.30
2022-11-06T05:39:57.540Z,4.88
2022-11-06T05:43:00.093Z,4.63
2022-11-06T05:46:02.608Z,4.65
2022-11-06T05:49:05.054Z,4.47
2022-11-06T05:52:07.792Z,4.27
2022-11-06T05:55:14.668Z,4.65
2022-11-06T05:58:17.941Z,4.93
2022-11-06T06:01:20.533Z,4.65
2022-11-06T06:04:22.999Z,4.68
2022-11-06T06:07:25.486Z,4.77
2022-11-06T06:10:27.977Z,4.80
2022-11-06T06:13:30.532Z,4.40
2022-11-06T06:16:33.041Z,4.28
2022-11-06T06:19:35.726Z,4.32
2022-11-06T06:22:38.274Z,4.37
2022-11-06T06:25:40.757Z,4.45
2022-11-06T06:28:43.452Z,4.40
2022-11-06T06:31:45.905Z,4.22
2022-11-06T06:34:48.365Z,4.68
2022-11-06T06:37:53.514Z,4.37
2022-11-06T06:40:56.091Z,4.00
2022-11-06T06:43:58.554Z,4.22
2022-11-06T06:47:01.175Z,4.15
2022-11-06T06:50:04.319Z,3.85
2022-11-06T06:53:06.765Z,4.20
2022-11-06T06:56:09.910Z,4.15
2022-11-06T06:59:12.297Z,4.30
2022-11-06T07:02:15.170Z,4.05
2022-11-06T07:05:17.920Z,3.97
2022-11-06T07:08:20.803Z,3.90
2022-11-06T07:11:23.352Z,3.92
2022-11-06T07:14:25.984Z,4.18
2022-11-06T07:17:28.543Z,4.10
2022-11-06T07:20:34.106Z,4.40
2022-11-06T07:23:37.223Z,4.10
2022-11-06T07:26:41.072Z,3.80
2022-11-06T07:29:43.600Z,4.10
2022-11-06T07:32:46.204Z,3.70
2022-11-06T07:35:49.063Z,4.10
2022-11-06T07:38:51.595Z,4.20
2022-11-06T07:41:54.366Z,3.80
2022-11-06T07:44:56.958Z,3.95
2022-11-06T07:47:59.950Z,3.67
2022-11-06T07:51:05.059Z,4.00
2022-11-06T07:54:07.511Z,3.70
2022-11-06T07:57:10.063Z,3.80
2022-11-06T08:00:13.705Z,4.20
2022-11-06T08:03:16.528Z,3.40
2022-11-06T08:06:19.163Z,4.28
2022-11-06T08:09:24.236Z,3.70
2022-11-06T08:12:26.637Z,3.80
2022-11-06T08:15:29.167Z,3.80
2022-11-06T08:18:31.652Z,3.20
2022-11-06T08:21:34.508Z,3.45
2022-11-06T08:24:38.322Z,3.90
2022-11-06T08:27:40.859Z,3.55
2022-11-06T08:30:43.318Z,3.95
2022-11-06T08:33:45.735Z,3.60
2022-11-06T08:36:52.411Z,3.50
2022-11-06T08:39:54.833Z,3.50
2022-11-06T08:43:06.277Z,3.55
2022-11-06T08:46:10.216Z,3.45
2022-11-06T08:49:12.967Z,3.67
2022-11-06T08:52:15.413Z,3.72
2022-11-06T08:55:17.844Z,3.50
2022-11-06T08:58:20.602Z,3.33
2022-11-06T09:01:24.289Z,3.58
2022-11-06T09:04:27.126Z,3.60
2022-11-06T09:07:29.713Z,3.75
2022-11-06T09:10:32.141Z,3.27
2022-11-06T09:13:34.856Z,3.15
2022-11-06T09:16:37.355Z,3.60
2022-11-06T09:19:39.866Z,3.20
2022-11-06T09:22:42.344Z,3.60
2022-11-06T09:25:45.577Z,3.43
2022-11-06T09:28:48.073Z,3.17
2022-11-06T09:31:50.548Z,3.20
2022-11-06T09:34:53.213Z,3.60
2022-11-06T09:38:01.034Z,3.17
2022-11-06T09:41:04.100Z,3.80
2022-11-06T09:44:30.759Z,3.00
2022-11-06T09:47:39.828Z,3.42
2022-11-06T09:51:15.306Z,3.35
2022-11-06T09:54:34.200Z,3.67
2022-11-06T09:57:57.370Z,3.30
2022-11-06T10:01:05.793Z,2.80
2022-11-06T10:04:21.962Z,3.20
2022-11-06T10:07:30.280Z,3.10
2022-11-06T10:10:54.152Z,3.60
2022-11-06T10:14:34.721Z,3.40
2022-11-06T10:17:39.835Z,3.50
2022-11-06T10:20:53.279Z,3.30
2022-11-06T10:23:59.954Z,3.05
2022-11-06T10:27:06.319Z,3.67
2022-11-06T10:30:17.727Z,3.30
2022-11-06T10:33:47.062Z,3.28
2022-11-06T10:36:56.908Z,3.55
2022-11-06T10:40:00.447Z,3.15
2022-11-06T10:43:30.708Z,3.50
2022-11-06T10:46:36.052Z,3.10
2022-11-06T10:49:45.991Z,3.30
2022-11-06T10:53:00.544Z,3.25
2022-11-06T10:56:21.297Z,2.90
2022-11-06T10:59:24.242Z,3.15
2022-11-06T11:02:39.086Z,3.33
2022-11-06T11:05:44.442Z,3.10
2022-11-06T11:08:49.499Z,3.20
2022-11-06T11:11:52.295Z,3.72
2022-11-06T11:15:13.938Z,3.35
2022-11-06T11:18:22.251Z,3.40
2022-11-06T11:21:27.861Z,3.15
2022-11-06T11:24:31.262Z,3.63
2022-11-06T11:27:43.352Z,3.33
2022-11-06T11:30:52.679Z,3.40
2022-11-06T11:33:57.945Z,3.23
2022-11-06T11:37:06.139Z,2.88
2022-11-06T11:40:36.761Z,2.95
2022-11-06T11:43:41.648Z,2.80
2022-11-06T11:46:53.310Z,3.13
2022-11-06T11:49:56.299Z,3.23
2022-11-06T11:53:09.859Z,3.42
2022-11-06T11:56:36.187Z,3.45
2022-11-06T11:59:50.588Z,3.60
2022-11-06T12:02:56.544Z,3.05
2022-11-06T12:06:11.455Z,3.03
2022-11-06T12:09:14.832Z,3.00
2022-11-06T12:12:24.512Z,2.90
2022-11-06T12:16:05.008Z,3.13
2022-11-06T12:19:09.708Z,3.13
2022-11-06T12:22:21.618Z,3.20
2022-11-06T12:25:41.360Z,3.05
2022-11-06T12:28:49.903Z,3.10
2022-11-06T12:32:08.006Z,2.92
2022-11-06T12:35:31.878Z,3.00
2022-11-06T12:38:59.813Z,3.43
2022-11-06T12:42:06.812Z,3.38
2022-11-06T12:45:12.998Z,3.50
2022-11-06T12:48:24.844Z,3.03
2022-11-06T12:51:37.081Z,2.85
2022-11-06T12:54:56.740Z,3.10
2022-11-06T12:58:26.201Z,3.00
2022-11-06T13:01:56.597Z,3.20
2022-11-06T13:05:16.568Z,3.00
2022-11-06T13:08:26.048Z,3.03
2022-11-06T13:11:55.286Z,3.10
2022-11-06T13:15:32.099Z,3.10
2022-11-06T13:18:45.308Z,2.80
2022-11-06T13:21:53.426Z,3.13
2022-11-06T13:25:18.348Z,3.20
2022-11-06T13:28:30.499Z,3.20
2022-11-06T13:31:40.252Z,3.25
2022-11-06T13:34:48.365Z,3.00
2022-11-06T13:37:54.676Z,3.50
2022-11-06T13:41:03.849Z,3.58
2022-11-06T13:44:15.927Z,3.17
2022-11-06T13:48:03.536Z,3.45
2022-11-06T13:51:16.513Z,3.15
2022-11-06T13:54:44.261Z,3.30
2022-11-06T13:58:41.816Z,3.40
2022-11-06T14:02:13.600Z,3.57
2022-11-06T14:05:54.204Z,2.95
2022-11-06T14:09:02.639Z,3.60
2022-11-06T14:12:15.236Z,3.10
2022-11-06T14:15:28.818Z,3.25
2022-11-06T14:18:33.460Z,3.10
2022-11-06T14:21:37.810Z,3.00
2022-11-06T14:24:42.652Z,3.33
2022-11-06T14:27:49.938Z,2.90
2022-11-06T14:34:33.961Z,3.00
2022-11-06T14:37:43.393Z,3.30
2022-11-06T14:40:47.120Z,3.28
2022-11-06T14:43:53.345Z,2.88
2022-11-06T14:47:00.213Z,3.13
2022-11-06T14:50:24.911Z,3.30
2022-11-06T14:53:45.327Z,3.60
2022-11-06T14:56:54.327Z,3.20
2022-11-06T14:59:58.879Z,3.13
2022-11-06T15:03:04.643Z,2.92
2022-11-06T15:06:18.931Z,3.60
2022-11-06T15:09:25.389Z,3.10
2022-11-06T15:13:07.953Z,3.20
2022-11-06T15:16:14.005Z,3.15
2022-11-06T15:19:31.801Z,3.40
2022-11-06T15:22:43.971Z,3.20
2022-11-06T15:25:52.379Z,3.47
2022-11-06T15:29:21.383Z,3.25
2022-11-06T15:32:31.904Z,3.75
2022-11-06T15:35:36.690Z,3.47
2022-11-06T15:38:42.353Z,3.10
2022-11-06T15:41:45.625Z,3.63
2022-11-06T15:44:50.134Z,3.50
2022-11-06T15:48:19.166Z,3.88
2022-11-06T15:51:28.235Z,3.95
2022-11-06T15:54:41.484Z,3.47
2022-11-06T15:57:44.786Z,3.70
2022-11-06T16:00:48.224Z,3.50
2022-11-06T16:03:55.047Z,3.60
2022-11-06T16:07:01.298Z,4.00
2022-11-06T16:10:05.360Z,3.67
2022-11-06T16:13:13.176Z,3.60
2022-11-06T16:16:38.238Z,3.75
2022-11-06T16:19:45.978Z,3.55
2022-11-06T16:22:51.332Z,3.92
2022-11-06T16:26:06.815Z,3.60
2022-11-06T16:29:26.055Z,3.85
2022-11-06T16:32:33.045Z,4.00
2022-11-06T16:35:37.143Z,4.07
2022-11-06T16:38:44.635Z,3.92
2022-11-06T16:42:29.678Z,3.70
2022-11-06T16:45:33.244Z,3.97
2022-11-06T16:48:39.708Z,4.07
2022-11-06T16:51:44.295Z,4.05
2022-11-06T16:54:55.838Z,4.55
2022-11-06T16:58:01.993Z,3.73
2022-11-06T17:01:07.395Z,4.13
2022-11-06T17:04:23.857Z,4.10
2022-11-06T17:07:27.885Z,3.78
2022-11-06T17:10:35.589Z,4.28
2022-11-06T17:13:51.849Z,3.80
2022-11-06T17:16:58.316Z,4.18
2022-11-06T17:20:15.762Z,3.90
2022-11-06T17:23:20.205Z,4.18
2022-11-06T17:26:28.831Z,4.32
2022-11-06T17:29:34.002Z,4.17
2022-11-06T17:32:37.905Z,3.97
2022-11-06T17:35:42.719Z,4.18
2022-11-06T17:38:48.315Z,4.05
2022-11-06T17:41:54.053Z,4.70
2022-11-06T17:44:57.671Z,4.17
2022-11-06T17:48:01.278Z,4.57
2022-11-06T17:51:23.045Z,4.07
2022-11-06T17:54:36.989Z,4.50
2022-11-06T17:57:40.554Z,4.90
2022-11-06T18:00:44.566Z,4.20
2022-11-06T18:03:49.769Z,4.47
2022-11-06T18:06:54.060Z,4.22
2022-11-06T18:09:58.187Z,4.30
2022-11-06T18:13:02.348Z,4.28
2022-11-06T18:16:37.507Z,4.60
2022-11-06T18:19:46.857Z,4.53
2022-11-06T18:22:50.565Z,4.72
2022-11-06T18:25:57.442Z,4.57
2022-11-06T18:29:00.850Z,4.85
2022-11-06T18:32:07.784Z,4.97
2022-11-06T18:35:11.489Z,4.78
2022-11-06T18:38:15.865Z,4.75
2022-11-06T18:41:21.876Z,4.40
2022-11-06T18:44:27.359Z,4.95
2022-11-06T18:47:31.520Z,4.97
2022-11-06T18:50:36.983Z,5.00
2022-11-06T18:53:41.579Z,4.80
2022-11-06T18:56:45.649Z,4.82
2022-11-06T18:59:49.528Z,5.03
2022-11-06T19:02:55.453Z,5.10
2022-11-06T19:05:59.134Z,4.93
2022-11-06T19:09:04.869Z,5.20
2022-11-06T19:12:14.270Z,5.30
2022-11-06T19:15:18.544Z,5.18
2022-11-06T19:18:23.938Z,5.20
2022-11-06T19:21:27.775Z,5.32
2022-11-06T19:24:32.827Z,5.15
2022-11-06T19:27:37.941Z,5.03
2022-11-06T19:30:42.737Z,5.70
2022-11-06T19:33:46.393Z,5.27
2022-11-06T19:36:50.657Z,5.85
2022-11-06T19:39:57.612Z,5.28
2022-11-06T19:43:04.245Z,5.45
2022-11-06T19:46:08.571Z,5.55
2022-11-06T19:49:12.460Z,5.60
2022-11-06T19:52:42.292Z,5.82
2022-11-06T19:55:41.886Z,5.53
2022-11-06T19:58:47.796Z,6.28
2022-11-06T20:01:52.105Z,6.18
2022-11-06T20:04:55.785Z,5.53
2022-11-06T20:08:00.731Z,5.82
2022-11-06T20:11:13.373Z,6.50
2022-11-06T20:14:22.190Z,6.20
2022-11-06T20:17:26.378Z,6.60
2022-11-06T20:20:35.996Z,5.97
2022-11-06T20:23:40.786Z,7.07
2022-11-06T20:26:48.873Z,7.18
2022-11-06T20:29:55.036Z,6.80
2022-11-06T20:32:58.659Z,6.95
2022-11-06T20:36:14.537Z,7.00
2022-11-06T20:39:19.345Z,6.85
2022-11-06T20:42:27.292Z,7.07
2022-11-06T20:45:37.892Z,6.93
2022-11-06T20:48:44.546Z,7.38
2022-11-06T20:52:12.716Z,7.00
2022-11-06T20:55:16.472Z,6.90
2022-11-06T20:58:20.231Z,6.60
2022-11-06T21:01:28.099Z,7.60
2022-11-06T21:04:31.481Z,7.10
2022-11-06T21:07:35.761Z,7.40
2022-11-06T21:10:39.297Z,7.10
2022-11-06T21:13:45.638Z,6.95
2022-11-06T21:16:49.494Z,7.05
2022-11-06T21:19:52.673Z,7.47
2022-11-06T21:22:55.940Z,7.23
2022-11-06T21:26:17.788Z,6.95
2022-11-06T21:29:23.491Z,7.05
2022-11-06T21:32:27.466Z,6.85
2022-11-06T21:35:30.425Z,7.32
2022-11-06T21:38:33.399Z,6.80
2022-11-06T21:41:37.067Z,7.15
2022-11-06T21:44:39.769Z,6.85
2022-11-06T21:47:42.629Z,6.65
2022-11-06T21:50:45.114Z,7.32
2022-11-06T21:54:07.104Z,7.43
2022-11-06T21:57:09.656Z,7.30
2022-11-06T22:00:14.383Z,7.53
2022-11-06T22:03:17.967Z,7.53
2022-11-06T22:06:24.799Z,6.90
2022-11-06T22:09:28.152Z,7.00
2022-11-06T22:12:30.590Z,6.88
2022-11-06T22:15:33.110Z,6.97
2022-11-06T22:18:36.292Z,7.03
2022-11-06T22:21:39.639Z,6.88
2022-11-06T22:24:42.144Z,6.83
2022-11-06T22:27:44.775Z,6.97
2022-11-06T22:30:47.227Z,7.68
2022-11-06T22:33:53.658Z,6.93
2022-11-06T22:36:56.581Z,6.72
2022-11-06T22:39:58.970Z,6.80
2022-11-06T22:43:01.871Z,6.97
2022-11-06T22:46:07.620Z,7.40
2022-11-06T22:49:10.299Z,6.72
2022-11-06T22:52:12.827Z,6.47
2022-11-06T22:55:15.345Z,6.73
2022-11-06T22:58:17.939Z,6.95
2022-11-06T23:01:22.868Z,6.85
2022-11-06T23:04:25.775Z,6.93
2022-11-06T23:07:28.255Z,7.05
2022-11-06T23:10:32.819Z,6.67
2022-11-06T23:13:36.071Z,6.82
2022-11-06T23:16:57.130Z,7.07
2022-11-06T23:19:59.745Z,6.78
2022-11-06T23:23:03.430Z,7.03
2022-11-06T23:26:17.669Z,6.70
2022-11-06T23:29:20.329Z,6.82
2022-11-06T23:32:22.770Z,6.70
2022-11-06T23:35:31.080Z,6.55
2022-11-06T23:38:35.595Z,6.50
2022-11-06T23:41:45.939Z,6.37
2022-11-06T23:45:07.870Z,6.60
2022-11-06T23:48:14.290Z,6.97
2022-11-06T23:51:17.058Z,6.93
2022-11-06T23:54:19.956Z,7.05
2022-11-06T23:57:22.488Z,6.67
